createdAt,value
2023-03-19T00:01:17.131Z,59.54
2023-03-19T00:11:38.657Z,59.95
2023-03-19T00:21:59.990Z,60.20
2023-03-19T00:32:21.470Z,59.95
2023-03-19T00:42:44.968Z,60.22
2023-03-19T00:53:06.677Z,60.32
2023-03-19T01:03:28.726Z,60.18
2023-03-19T01:13:49.923Z,60.20
2023-03-19T01:24:11.358Z,59.41
2023-03-19T01:34:33.194Z,59.77
2023-03-19T01:45:35.733Z,59.70
2023-03-19T01:56:19.952Z,59.63
2023-03-19T02:06:56.698Z,59.64
2023-03-19T02:17:18.246Z,60.00
2023-03-19T02:27:39.613Z,59.50
2023-03-19T02:38:02.316Z,60.31
2023-03-19T02:48:23.762Z,59.01
2023-03-19T02:58:44.800Z,59.54
2023-03-19T03:09:06.693Z,59.63
2023-03-19T03:19:27.977Z,60.01
2023-03-19T03:29:49.261Z,60.13
2023-03-19T03:40:11.170Z,60.06
2023-03-19T03:50:32.730Z,60.40
2023-03-19T04:00:59.903Z,59.35
2023-03-19T04:11:21.813Z,59.77
2023-03-19T04:21:45.094Z,59.85
2023-03-19T04:32:07.006Z,59.78
2023-03-19T04:42:28.569Z,59.79
2023-03-19T04:53:13.684Z,59.77
2023-03-19T05:03:36.384Z,59.65
2023-03-19T05:13:58.226Z,60.09
2023-03-19T05:24:25.535Z,59.56
2023-03-19T05:34:48.408Z,59.78
2023-03-19T05:45:11.942Z,59.35
2023-03-19T05:55:39.255Z,59.34
2023-03-19T06:06:03.599Z,60.16
2023-03-19T06:16:29.839Z,59.27
2023-03-19T06:26:52.828Z,59.86
2023-03-19T06:37:14.248Z,59.73
2023-03-19T06:47:35.449Z,59.55
2023-03-19T06:57:57.061Z,59.33
2023-03-19T07:08:18.419Z,59.64
2023-03-19T07:18:39.676Z,59.53
2023-03-19T07:29:00.956Z,59.50
2023-03-19T07:39:22.366Z,59.42
2023-03-19T07:49:43.624Z,59.22
2023-03-19T08:00:05.891Z,58.73
2023-03-19T08:10:36.413Z,59.02
2023-03-19T08:20:59.311Z,58.93
2023-03-19T08:31:20.747Z,58.50
2023-03-19T08:41:42.172Z,58.50
2023-03-19T08:52:04.304Z,58.51
2023-03-19T09:02:25.282Z,58.44
2023-03-19T09:12:48.505Z,58.06
2023-03-19T09:23:10.010Z,58.25
2023-03-19T09:33:31.395Z,58.38
2023-03-19T09:44:04.670Z,58.42
2023-03-19T09:54:34.641Z,58.21
2023-03-19T10:05:06.564Z,58.30
2023-03-19T10:15:28.809Z,58.24
2023-03-19T10:25:53.245Z,58.48
2023-03-19T10:36:16.213Z,58.63
2023-03-19T10:46:40.863Z,58.55
2023-03-19T10:57:02.134Z,58.28
2023-03-19T11:07:25.678Z,58.63
2023-03-19T11:17:58.819Z,58.22
2023-03-19T11:28:26.940Z,58.95
2023-03-19T11:38:54.566Z,58.33
2023-03-19T11:49:25.587Z,58.38
2023-03-19T12:00:14.686Z,58.43
2023-03-19T12:10:57.626Z,58.93
2023-03-19T12:21:27.377Z,59.00
2023-03-19T12:32:00.660Z,59.53
2023-03-19T12:42:22.586Z,59.70
2023-03-19T12:52:46.890Z,59.24
2023-03-19T13:03:12.925Z,59.14
2023-03-19T13:13:43.713Z,59.31
2023-03-19T13:24:32.629Z,59.32
2023-03-19T13:35:39.935Z,60.26
2023-03-19T13:46:13.506Z,60.11
2023-03-19T13:57:03.624Z,59.81
2023-03-19T14:07:28.106Z,60.42
2023-03-19T14:17:48.989Z,60.52
2023-03-19T14:28:11.012Z,60.63
2023-03-19T14:38:41.369Z,60.84
2023-03-19T14:49:15.784Z,61.13
2023-03-19T14:59:39.361Z,61.38
2023-03-19T15:10:06.420Z,61.61
2023-03-19T15:20:33.251Z,61.71
2023-03-19T15:31:05.689Z,61.15
2023-03-19T15:41:32.422Z,61.98
2023-03-19T15:51:58.212Z,61.77
2023-03-19T16:02:25.426Z,61.38
2023-03-19T16:12:50.055Z,61.74
2023-03-19T16:23:16.700Z,61.25
2023-03-19T16:33:37.902Z,61.25
2023-03-19T16:44:13.250Z,61.29
2023-03-19T16:54:34.645Z,60.70
2023-03-19T17:04:56.349Z,61.26
2023-03-19T17:15:26.885Z,60.69
2023-03-19T17:25:47.816Z,60.59
2023-03-19T17:36:09.856Z,61.30
2023-03-19T17:46:34.312Z,61.06
2023-03-19T17:56:56.260Z,60.91
2023-03-19T18:07:17.383Z,61.52
2023-03-19T18:17:40.945Z,62.07
2023-03-19T18:28:03.629Z,62.34
2023-03-19T18:38:26.639Z,62.92
2023-03-19T18:48:47.656Z,62.85
2023-03-19T18:59:18.282Z,63.29
2023-03-19T19:09:39.358Z,63.09
2023-03-19T19:20:00.457Z,63.82
2023-03-19T19:30:22.283Z,63.79
2023-03-19T19:40:44.820Z,64.12
2023-03-19T19:51:08.234Z,64.06
2023-03-19T20:01:29.399Z,63.85
2023-03-19T20:11:50.675Z,64.17
2023-03-19T20:22:11.882Z,64.36
2023-03-19T20:32:36.358Z,64.32
2023-03-19T20:42:58.161Z,64.12
2023-03-19T20:53:19.746Z,64.41
2023-03-19T21:03:41.830Z,64.29
2023-03-19T21:14:02.919Z,63.99
2023-03-19T21:24:24.897Z,63.75
2023-03-19T21:34:49.094Z,63.93
2023-03-19T21:45:41.393Z,63.85
2023-03-19T21:56:02.718Z,64.17
2023-03-19T22:06:24.836Z,63.82
2023-03-19T22:16:47.242Z,64.02
2023-03-19T22:27:14.709Z,64.62
2023-03-19T22:37:36.088Z,65.01
2023-03-19T22:47:58.351Z,65.20
2023-03-19T22:58:19.369Z,64.79
2023-03-19T23:08:40.239Z,65.05
2023-03-19T23:19:02.261Z,65.45
2023-03-19T23:29:27.975Z,65.92
2023-03-19T23:39:49.429Z,65.76
2023-03-19T23:50:13.867Z,66.29
